MUNG/GER METAR and TAF weather

Enter ICAO airport designator
Station Type Date Time Source
MUNG METAR 2020/04/21 20:50 UTC NOAA

MUNG 212050Z 32009KT 280V360 9000 FEW012CB BKN015 32/23 Q1013 RMK CB AT SW


Station Type Date Time Source
MUNG Decoded METAR 2020/04/21 20:50 UTC NOAA

Nueva Gerona, Isla De Pinos, Cuba (MUNG) 21-50N 082-47W 23M
Apr 21, 2020 - 04:50 PM EDT / 2020.04.21 2050 UTC
Wind: from the NW (320 degrees) at 10 MPH (9 KT) (direction variable):0
Visibility: 5 mile(s):0
Sky conditions: mostly cloudy
Weather: Cumulonimbus clouds observed
Temperature: 89 F (32 C)
Heat index: 96.8 F (36.0 C):1
Dew Point: 73 F (23 C)
Relative Humidity: 59%
Pressure (altimeter): 29.91 in. Hg (1013 hPa)
ob: MUNG 212050Z 32009KT 280V360 9000 FEW012CB BKN015 32/23 Q1013 RMK CB AT SW
cycle: 21

Station Type Date Time Source
MUNG TAF 2020/01/27 12:06 UTC NOAA

TAF COR MUNG 271100Z 2712/2724 VRB03KT 9000 FEW020
TEMPO 2712/2714 3000 BR
BECMG 2715/2717 05009KT SCT020

Example: see airport list